WBSB/BWN METAR and TAF weather

Enter ICAO airport designator
Station Type Date Time Source
WBSB METAR 2019/06/27 04:00 UTC NOAA

WBSB 270400Z 25006KT 9999 FEW016 BKN280 32/24 Q1010 NOSIG


Station Type Date Time Source
WBSB Decoded METAR 2019/06/27 04:00 UTC NOAA

Brunei Airport, Brunei (WBSB) 04-56N 114-56E 15M
Jun 27, 2019 - 12:00 AM EDT / 2019.06.27 0400 UTC
Wind: from the WSW (250 degrees) at 7 MPH (6 KT):0
Visibility: greater than 7 mile(s):0
Sky conditions: mostly cloudy
Temperature: 89 F (32 C)
Heat index: 98.4 F (36.9 C):1
Dew Point: 75 F (24 C)
Relative Humidity: 62%
Pressure (altimeter): 29.83 in. Hg (1010 hPa)
ob: WBSB 270400Z 25006KT 9999 FEW016 BKN280 32/24 Q1010 NOSIG
cycle: 4

Station Type Date Time Source
WBSB TAF 2019/06/26 18:12 UTC NOAA

TAF WBSB 261700Z 2618/2800 20003KT 9999 FEW015 FEW016CB
TEMPO 2620/2622 7000 SHRA
BECMG 2702/2704 26010KT SCT016 FEW017CB

Example: see airport list